Time;durP1;ratioP1;P1;durP2;ratioP2;P2;SDS_P1;SDS_P2;PMS_P1;PMS_P2;Temp;Humidity;BMP_temperature;BMP_pressure;BME280_temperature;BME280_humidity;BME280_pressure;Samples;Min_cycle;Max_cycle;Signal;HPM_P1;HPM_P2
2024/01/04 00:01:15;;;;;;;8.02;1.45;;;6.60;99.90;;;;;;6149536;23;20072;-75
2024/01/04 00:03:40;;;;;;;5.05;0.70;;;6.50;99.90;;;;;;6150546;23;20040;-75
2024/01/04 00:06:06;;;;;;;6.68;1.55;;;6.60;99.90;;;;;;6146680;23;20520;-75
2024/01/04 00:08:32;;;;;;;6.20;1.40;;;6.60;99.90;;;;;;6121887;23;20453;-75
2024/01/04 00:10:58;;;;;;;6.95;1.05;;;6.60;99.90;;;;;;6122815;23;20044;-75
2024/01/04 00:13:24;;;;;;;7.00;1.10;;;6.50;99.90;;;;;;6124234;23;20013;-75
2024/01/04 00:15:50;;;;;;;3.95;0.68;;;6.50;99.90;;;;;;6148870;23;20033;-75
2024/01/04 00:18:16;;;;;;;6.10;0.85;;;6.50;99.90;;;;;;6149304;23;20051;-75
2024/01/04 00:20:42;;;;;;;4.43;1.50;;;6.50;99.90;;;;;;6150611;23;20315;-75
2024/01/04 00:23:08;;;;;;;4.10;0.90;;;6.50;99.90;;;;;;6122752;23;20021;-75
2024/01/04 00:25:33;;;;;;;3.38;0.93;;;6.50;99.90;;;;;;6098794;23;20028;-75
2024/01/04 00:28:00;;;;;;;4.43;0.80;;;6.50;99.90;;;;;;6149036;23;20052;-75
2024/01/04 00:30:25;;;;;;;5.90;1.48;;;6.50;99.90;;;;;;6148726;23;20202;-74
2024/01/04 00:32:51;;;;;;;4.28;1.23;;;6.50;99.90;;;;;;6149235;23;20246;-75
2024/01/04 00:35:17;;;;;;;4.30;0.90;;;6.40;99.90;;;;;;6122981;23;20017;-74
2024/01/04 00:37:42;;;;;;;6.93;0.95;;;6.50;99.90;;;;;;6150816;23;20028;-75
2024/01/04 00:40:08;;;;;;;3.17;0.70;;;6.40;99.90;;;;;;6148979;23;20504;-75
2024/01/04 00:42:35;;;;;;;5.90;1.00;;;6.40;99.90;;;;;;6146648;23;20026;-75
2024/01/04 00:45:00;;;;;;;8.95;1.27;;;6.40;99.90;;;;;;6148835;23;20021;-75
2024/01/04 00:47:26;;;;;;;5.60;1.00;;;6.50;99.90;;;;;;6149324;23;20016;-75
2024/01/04 00:49:52;;;;;;;15.68;1.13;;;6.40;99.90;;;;;;6122674;23;20017;-75
2024/01/04 00:52:18;;;;;;;6.20;0.82;;;6.40;99.90;;;;;;6121336;23;20517;-75
2024/01/04 00:54:43;;;;;;;8.98;1.30;;;6.40;99.90;;;;;;6150181;23;20068;-75
2024/01/04 00:57:09;;;;;;;4.40;0.82;;;6.40;99.90;;;;;;6121556;23;20057;-74
2024/01/04 00:59:34;;;;;;;4.50;0.80;;;6.40;99.90;;;;;;6149666;23;20022;-74
2024/01/04 01:02:00;;;;;;;1.88;0.90;;;6.40;99.90;;;;;;6123123;23;20025;-75
2024/01/04 01:04:26;;;;;;;3.50;0.90;;;6.30;99.90;;;;;;6148850;23;20013;-75
2024/01/04 01:06:52;;;;;;;3.05;0.82;;;6.30;99.90;;;;;;6144841;23;20323;-75
2024/01/04 01:09:17;;;;;;;5.13;1.00;;;6.30;99.90;;;;;;6121561;23;20029;-75
2024/01/04 01:11:43;;;;;;;1.73;0.75;;;6.30;99.90;;;;;;6145910;23;20018;-75
2024/01/04 01:14:09;;;;;;;4.65;0.70;;;6.30;99.90;;;;;;6150183;23;20028;-75
2024/01/04 01:16:35;;;;;;;4.15;0.75;;;6.20;99.90;;;;;;6123181;23;20017;-75
2024/01/04 01:19:00;;;;;;;5.18;1.17;;;6.30;99.90;;;;;;6148086;23;20036;-75
2024/01/04 01:21:26;;;;;;;5.63;1.02;;;6.20;99.90;;;;;;6148141;23;20014;-75
2024/01/04 01:23:51;;;;;;;3.38;0.80;;;6.20;99.90;;;;;;6148713;23;20477;-74
2024/01/04 01:26:17;;;;;;;7.25;0.80;;;6.20;99.90;;;;;;6147306;23;20049;-74
2024/01/04 01:28:43;;;;;;;2.53;0.88;;;6.20;99.90;;;;;;6149459;23;20117;-74
2024/01/04 01:31:08;;;;;;;4.32;1.10;;;6.20;99.90;;;;;;6148445;23;20033;-75
2024/01/04 01:33:34;;;;;;;3.08;0.90;;;6.20;99.90;;;;;;6148730;23;20021;-75
2024/01/04 01:36:01;;;;;;;5.57;0.80;;;6.20;99.90;;;;;;6147490;23;20030;-74
2024/01/04 01:38:27;;;;;;;1.73;0.80;;;6.20;99.90;;;;;;6148972;23;20146;-75
2024/01/04 01:40:53;;;;;;;3.80;0.77;;;6.10;99.90;;;;;;6120600;23;20030;-75
2024/01/04 01:43:18;;;;;;;3.03;1.48;;;6.20;99.90;;;;;;6148546;23;20037;-75
2024/01/04 01:45:45;;;;;;;3.50;0.88;;;6.10;99.90;;;;;;6148814;23;20025;-75
2024/01/04 01:48:14;;;;;;;3.55;0.70;;;6.10;99.90;;;;;;6122365;23;20344;-75
2024/01/04 01:50:40;;;;;;;4.15;0.73;;;6.10;99.90;;;;;;6148181;23;20615;-75
2024/01/04 01:53:07;;;;;;;2.05;0.63;;;6.10;99.90;;;;;;6146952;23;20018;-75
2024/01/04 01:55:33;;;;;;;4.32;0.82;;;6.10;99.90;;;;;;6148289;23;20492;-74
2024/01/04 01:57:59;;;;;;;4.35;1.00;;;6.10;99.90;;;;;;6147396;23;20017;-76
2024/01/04 02:00:25;;;;;;;3.92;0.80;;;6.10;99.90;;;;;;6148971;23;20022;-74
2024/01/04 02:02:50;;;;;;;2.35;0.90;;;6.00;99.90;;;;;;6125213;23;20013;-73
2024/01/04 02:05:17;;;;;;;4.28;1.10;;;6.00;99.90;;;;;;6149982;23;20017;-74
2024/01/04 02:07:45;;;;;;;5.88;1.42;;;6.00;99.90;;;;;;6147456;23;20013;-74
2024/01/04 02:10:11;;;;;;;6.50;0.82;;;6.00;99.90;;;;;;6124157;23;20033;-74
2024/01/04 02:12:38;;;;;;;4.55;0.88;;;6.00;99.90;;;;;;6149829;23;20338;-74
2024/01/04 02:15:04;;;;;;;3.78;0.75;;;6.00;99.90;;;;;;6149048;23;20028;-74
2024/01/04 02:17:30;;;;;;;3.35;0.93;;;6.00;99.90;;;;;;6150589;23;20026;-74
2024/01/04 02:19:57;;;;;;;2.80;0.77;;;6.00;99.90;;;;;;6124129;23;20022;-74
2024/01/04 02:22:25;;;;;;;3.47;0.93;;;6.00;99.90;;;;;;6149186;23;20028;-75
2024/01/04 02:24:51;;;;;;;3.65;1.00;;;6.00;99.90;;;;;;6149803;23;20461;-74
2024/01/04 02:27:17;;;;;;;6.43;0.90;;;6.00;99.90;;;;;;6149644;23;20017;-74
2024/01/04 02:29:43;;;;;;;9.07;1.05;;;5.90;99.90;;;;;;6149535;23;20022;-74
2024/01/04 02:32:09;;;;;;;4.40;0.88;;;5.90;99.90;;;;;;6148633;23;20035;-74
2024/01/04 02:34:35;;;;;;;5.75;1.10;;;5.90;99.90;;;;;;6151563;23;20493;-76
2024/01/04 02:37:00;;;;;;;5.70;1.08;;;5.90;99.90;;;;;;6149168;23;20470;-75
2024/01/04 02:39:26;;;;;;;5.22;1.20;;;5.90;99.90;;;;;;6150679;23;20096;-75
2024/01/04 02:41:52;;;;;;;3.15;0.73;;;5.90;99.90;;;;;;6149273;23;20049;-75
2024/01/04 02:44:18;;;;;;;6.20;1.35;;;5.90;99.90;;;;;;6122639;23;20025;-75
2024/01/04 02:46:43;;;;;;;6.43;1.70;;;5.80;99.90;;;;;;6150772;23;20107;-75
2024/01/04 02:49:09;;;;;;;4.72;0.95;;;5.80;99.90;;;;;;6150475;23;20284;-74
2024/01/04 02:51:35;;;;;;;3.47;1.00;;;5.80;99.90;;;;;;6149336;23;20017;-75
2024/01/04 02:54:00;;;;;;;3.13;1.67;;;5.80;99.90;;;;;;6150580;23;20022;-74
2024/01/04 02:56:26;;;;;;;5.15;0.68;;;5.80;99.90;;;;;;6148604;23;20017;-74
2024/01/04 02:58:52;;;;;;;5.28;0.80;;;5.80;99.90;;;;;;6123429;23;20045;-75
2024/01/04 03:01:24;;;;;;;5.32;0.95;;;5.80;99.90;;;;;;6151313;23;20016;-76
2024/01/04 03:03:55;;;;;;;4.50;1.23;;;5.70;99.90;;;;;;6149105;23;20017;-75
2024/01/04 03:06:24;;;;;;;8.48;1.20;;;5.70;99.90;;;;;;6146746;23;20025;-75
2024/01/04 03:08:51;;;;;;;2.70;0.77;;;5.70;99.90;;;;;;6150604;23;20100;-75
2024/01/04 03:11:17;;;;;;;4.53;1.15;;;5.70;99.90;;;;;;6149132;23;20036;-75
2024/01/04 03:13:42;;;;;;;4.38;1.00;;;5.60;99.90;;;;;;6149313;23;20497;-75
2024/01/04 03:16:08;;;;;;;3.58;0.80;;;5.50;99.90;;;;;;6150634;23;20109;-75
2024/01/04 03:18:34;;;;;;;5.22;0.80;;;5.50;99.90;;;;;;6150711;23;20014;-75
2024/01/04 03:21:02;;;;;;;2.42;0.68;;;5.50;99.90;;;;;;6149096;23;20401;-75
2024/01/04 03:23:28;;;;;;;4.07;0.70;;;5.40;99.90;;;;;;6149050;23;20015;-75
2024/01/04 03:25:54;;;;;;;2.35;0.77;;;5.30;99.90;;;;;;6146871;23;20025;-75
2024/01/04 03:28:20;;;;;;;4.68;0.80;;;5.30;99.90;;;;;;6150126;23;20041;-75
2024/01/04 03:30:46;;;;;;;4.38;1.10;;;5.30;99.90;;;;;;6148128;23;20017;-75
2024/01/04 03:33:11;;;;;;;3.47;0.60;;;5.30;99.90;;;;;;6148846;23;20781;-74
2024/01/04 03:35:37;;;;;;;4.57;0.75;;;5.30;99.90;;;;;;6150303;23;20053;-75
2024/01/04 03:38:03;;;;;;;4.60;0.88;;;5.40;99.90;;;;;;6150530;23;20028;-75
2024/01/04 03:40:28;;;;;;;1.42;0.57;;;5.40;99.90;;;;;;6147832;23;20028;-74
2024/01/04 03:42:54;;;;;;;4.53;0.73;;;5.30;99.90;;;;;;6149844;23;20427;-74
2024/01/04 03:45:20;;;;;;;2.25;0.90;;;5.30;99.90;;;;;;6150256;23;20521;-74
2024/01/04 03:47:45;;;;;;;4.32;0.90;;;5.30;99.90;;;;;;6148036;23;20276;-74
2024/01/04 03:50:11;;;;;;;1.65;0.60;;;5.20;99.90;;;;;;6149679;23;20017;-75
2024/01/04 03:52:37;;;;;;;3.65;0.90;;;5.20;99.90;;;;;;6148475;23;20045;-74
2024/01/04 03:55:03;;;;;;;2.00;0.80;;;5.10;99.90;;;;;;6150734;23;20018;-75
2024/01/04 03:57:29;;;;;;;5.18;0.90;;;5.00;99.90;;;;;;6148738;23;20018;-74
2024/01/04 03:59:54;;;;;;;1.88;0.80;;;5.00;99.90;;;;;;6148184;23;20041;-74
2024/01/04 04:02:20;;;;;;;5.05;0.73;;;5.00;99.90;;;;;;6149961;23;20013;-74
2024/01/04 04:04:46;;;;;;;5.28;0.93;;;4.90;99.90;;;;;;6150255;23;20090;-75
2024/01/04 04:07:11;;;;;;;3.75;1.10;;;4.90;99.90;;;;;;6145216;23;20017;-74
2024/01/04 04:09:37;;;;;;;9.55;2.25;;;4.90;99.90;;;;;;6147691;23;20021;-74
2024/01/04 04:12:03;;;;;;;2.63;1.35;;;4.90;99.90;;;;;;6145458;23;20434;-74
2024/01/04 04:14:33;;;;;;;7.35;1.17;;;4.90;99.90;;;;;;6149436;23;20692;-74
2024/01/04 04:17:00;;;;;;;6.75;0.90;;;4.90;99.90;;;;;;6150139;23;20382;-74
2024/01/04 04:19:25;;;;;;;5.85;1.05;;;4.90;99.90;;;;;;6146838;23;20064;-75
2024/01/04 04:21:51;;;;;;;3.55;1.30;;;4.90;99.90;;;;;;6148887;23;20013;-74
2024/01/04 04:24:17;;;;;;;3.17;0.88;;;4.90;99.90;;;;;;6148263;23;20070;-74
2024/01/04 04:26:42;;;;;;;3.20;0.93;;;4.90;99.90;;;;;;6147934;23;20108;-75
2024/01/04 04:29:08;;;;;;;6.00;1.10;;;4.90;99.90;;;;;;6147507;23;20280;-75
2024/01/04 04:31:33;;;;;;;2.30;0.88;;;4.90;99.90;;;;;;6148480;23;20389;-75
2024/01/04 04:33:59;;;;;;;3.25;0.82;;;4.90;99.90;;;;;;6149476;23;20476;-75
2024/01/04 04:36:25;;;;;;;3.13;0.70;;;4.90;99.90;;;;;;6148711;23;20145;-75
2024/01/04 04:38:50;;;;;;;7.25;1.20;;;4.90;99.90;;;;;;6149769;23;20080;-75
2024/01/04 04:41:16;;;;;;;2.05;0.73;;;4.80;99.90;;;;;;6147320;23;20022;-75
2024/01/04 04:43:42;;;;;;;5.28;1.15;;;4.80;99.90;;;;;;6121630;23;20096;-75
2024/01/04 04:46:09;;;;;;;6.40;1.00;;;4.80;99.90;;;;;;6150203;23;20025;-75
2024/01/04 04:48:36;;;;;;;3.67;0.65;;;4.70;99.90;;;;;;6123112;23;20461;-75
2024/01/04 04:51:02;;;;;;;3.70;0.77;;;4.70;99.90;;;;;;6122055;23;20087;-74
2024/01/04 04:53:28;;;;;;;8.57;1.65;;;4.60;99.90;;;;;;6150068;23;20453;-75
2024/01/04 04:55:53;;;;;;;3.97;0.93;;;4.60;99.90;;;;;;6147988;23;20354;-75
2024/01/04 04:58:19;;;;;;;3.05;0.95;;;4.60;99.90;;;;;;6148607;23;20021;-75
2024/01/04 05:00:45;;;;;;;4.90;0.95;;;4.60;99.90;;;;;;6150054;23;20021;-75
2024/01/04 05:03:10;;;;;;;4.13;0.98;;;4.60;99.90;;;;;;6146864;23;20026;-75
2024/01/04 05:05:36;;;;;;;3.38;0.63;;;4.70;99.90;;;;;;6122271;23;20100;-75
2024/01/04 05:08:05;;;;;;;5.15;1.15;;;4.70;99.90;;;;;;6146403;23;20022;-75
2024/01/04 05:10:31;;;;;;;6.68;1.00;;;4.70;99.90;;;;;;6147204;23;20480;-75
2024/01/04 05:12:59;;;;;;;3.80;1.55;;;4.70;99.90;;;;;;6149449;23;20014;-74
2024/01/04 05:15:28;;;;;;;5.55;1.33;;;4.70;99.90;;;;;;6149256;23;20454;-75
2024/01/04 05:17:54;;;;;;;5.03;0.93;;;4.70;99.90;;;;;;6148225;23;20312;-75
2024/01/04 05:20:20;;;;;;;5.32;1.10;;;4.70;99.90;;;;;;6146510;23;20170;-75
2024/01/04 05:22:46;;;;;;;5.63;1.65;;;4.70;99.90;;;;;;6148689;23;20430;-75
2024/01/04 05:25:15;;;;;;;4.90;0.93;;;4.70;99.90;;;;;;6148544;23;20045;-74
2024/01/04 05:27:40;;;;;;;5.15;1.08;;;4.70;99.90;;;;;;6148275;23;20284;-75
2024/01/04 05:30:09;;;;;;;3.58;0.90;;;4.70;99.90;;;;;;6149698;23;20675;-75
2024/01/04 05:32:35;;;;;;;3.10;0.85;;;4.70;99.90;;;;;;6147365;23;20382;-76
2024/01/04 05:35:01;;;;;;;3.92;0.90;;;4.70;99.90;;;;;;6123182;23;20110;-72
2024/01/04 05:37:27;;;;;;;2.95;0.98;;;4.70;99.90;;;;;;6148250;23;20022;-72
2024/01/04 05:39:53;;;;;;;3.65;1.30;;;4.80;99.90;;;;;;6148697;23;20092;-72
2024/01/04 05:42:19;;;;;;;2.35;1.15;;;4.70;99.90;;;;;;6147286;23;20026;-72
2024/01/04 05:44:44;;;;;;;4.82;1.00;;;4.80;99.90;;;;;;6147894;23;20017;-72
2024/01/04 05:47:10;;;;;;;4.63;0.98;;;4.70;99.90;;;;;;6121404;23;20593;-71
2024/01/04 05:49:36;;;;;;;10.23;1.67;;;4.80;99.90;;;;;;6121655;23;20386;-72
2024/01/04 05:52:02;;;;;;;3.15;0.90;;;4.80;99.90;;;;;;6122910;23;20100;-71
2024/01/04 05:54:28;;;;;;;2.70;0.85;;;4.80;99.90;;;;;;6121922;23;20115;-71
2024/01/04 05:56:54;;;;;;;3.05;1.05;;;4.80;99.90;;;;;;6122171;23;20022;-72
2024/01/04 05:59:24;;;;;;;2.40;0.60;;;4.80;99.90;;;;;;6097516;23;20387;-72
2024/01/04 06:01:50;;;;;;;3.90;0.80;;;4.80;99.90;;;;;;6148813;23;20092;-71
2024/01/04 06:04:16;;;;;;;11.15;1.30;;;4.80;99.90;;;;;;6148600;23;20032;-72
2024/01/04 06:06:42;;;;;;;4.55;0.90;;;4.80;99.90;;;;;;6143776;23;20330;-72
2024/01/04 06:09:07;;;;;;;6.28;1.20;;;4.90;99.90;;;;;;6121514;23;20123;-72
2024/01/04 06:11:33;;;;;;;2.47;1.00;;;4.80;99.90;;;;;;6147844;23;20017;-72
2024/01/04 06:13:59;;;;;;;5.60;0.85;;;4.90;99.90;;;;;;6148478;23;20420;-72
2024/01/04 06:16:24;;;;;;;4.07;1.25;;;4.90;99.90;;;;;;6097425;23;20528;-72
2024/01/04 06:18:51;;;;;;;4.15;0.85;;;4.80;99.90;;;;;;6147865;23;20367;-72
2024/01/04 06:21:17;;;;;;;5.97;0.75;;;4.80;99.90;;;;;;6146655;23;20022;-72
2024/01/04 06:23:42;;;;;;;6.07;1.00;;;4.90;99.90;;;;;;6149731;23;20076;-72
2024/01/04 06:26:08;;;;;;;3.97;0.93;;;4.90;99.90;;;;;;6147858;23;20524;-73
2024/01/04 06:28:36;;;;;;;3.28;1.05;;;4.90;99.90;;;;;;6150404;23;20088;-75
2024/01/04 06:31:02;;;;;;;2.75;0.85;;;4.90;99.90;;;;;;6147304;23;20030;-75
2024/01/04 06:33:28;;;;;;;6.85;1.33;;;4.90;99.90;;;;;;6148536;23;20444;-75
2024/01/04 06:35:54;;;;;;;7.07;1.05;;;4.90;99.90;;;;;;6144806;23;20032;-75
2024/01/04 06:38:19;;;;;;;5.57;1.02;;;4.90;99.90;;;;;;6148551;23;20010;-75
2024/01/04 06:40:45;;;;;;;3.70;0.90;;;5.00;99.90;;;;;;6123245;23;20355;-75
2024/01/04 06:43:11;;;;;;;5.65;1.20;;;5.00;99.90;;;;;;6147934;23;20014;-75
2024/01/04 06:45:37;;;;;;;4.85;0.98;;;5.00;99.90;;;;;;6148996;23;20224;-75
2024/01/04 06:48:04;;;;;;;6.82;1.67;;;5.00;99.90;;;;;;6150914;23;20516;-74
2024/01/04 06:50:30;;;;;;;6.60;1.75;;;4.90;99.90;;;;;;6149288;23;20024;-75
2024/01/04 06:52:56;;;;;;;4.10;1.20;;;5.00;99.90;;;;;;6123953;23;20022;-74
2024/01/04 06:55:23;;;;;;;2.50;1.10;;;5.00;99.90;;;;;;6150914;23;20446;-75
2024/01/04 06:57:48;;;;;;;3.47;1.17;;;5.00;99.90;;;;;;6151542;23;20043;-75
2024/01/04 07:00:15;;;;;;;4.72;1.25;;;5.00;99.90;;;;;;6151464;23;20646;-75
2024/01/04 07:02:41;;;;;;;4.10;0.90;;;5.00;99.90;;;;;;6123525;23;20147;-75
2024/01/04 07:05:07;;;;;;;5.95;0.95;;;5.00;99.90;;;;;;6124917;23;20068;-75
2024/01/04 07:07:34;;;;;;;3.90;1.20;;;5.00;99.90;;;;;;6121146;23;20014;-75
2024/01/04 07:10:00;;;;;;;4.40;1.38;;;4.90;99.90;;;;;;6123133;23;20021;-75
2024/01/04 07:12:26;;;;;;;5.18;1.42;;;4.90;99.90;;;;;;6149907;23;20013;-75
2024/01/04 07:14:52;;;;;;;8.02;1.83;;;4.90;99.90;;;;;;6150859;23;20024;-75
2024/01/04 07:17:18;;;;;;;4.25;1.17;;;4.90;99.90;;;;;;6149670;23;20411;-75
2024/01/04 07:19:44;;;;;;;5.18;1.15;;;4.90;99.90;;;;;;6151152;23;20017;-76
2024/01/04 07:22:10;;;;;;;3.60;1.30;;;4.90;99.90;;;;;;6150005;23;20049;-75
2024/01/04 07:24:36;;;;;;;3.13;1.42;;;4.90;99.90;;;;;;6150004;23;20101;-75
2024/01/04 07:27:03;;;;;;;7.30;1.02;;;4.90;99.90;;;;;;6150217;23;20025;-75
2024/01/04 07:29:29;;;;;;;5.15;0.80;;;4.90;99.90;;;;;;6150758;23;20137;-75
2024/01/04 07:31:55;;;;;;;4.90;0.98;;;4.90;99.90;;;;;;6149885;23;20178;-75
2024/01/04 07:34:21;;;;;;;4.05;0.88;;;4.80;99.90;;;;;;6148962;23;20118;-75
2024/01/04 07:36:47;;;;;;;4.45;1.10;;;4.80;99.90;;;;;;6152462;23;20014;-75
2024/01/04 07:39:14;;;;;;;4.60;1.17;;;4.80;99.90;;;;;;6149205;23;20025;-75
2024/01/04 07:41:41;;;;;;;6.53;1.25;;;4.80;99.90;;;;;;6123016;23;20021;-76
2024/01/04 07:44:07;;;;;;;2.17;0.70;;;4.80;99.90;;;;;;6150768;23;20117;-75
2024/01/04 07:46:33;;;;;;;4.55;0.93;;;4.80;99.90;;;;;;6149326;23;20088;-75
2024/01/04 07:48:59;;;;;;;5.97;1.33;;;4.80;99.90;;;;;;6151634;23;20009;-74
2024/01/04 07:51:25;;;;;;;6.22;2.13;;;4.80;99.90;;;;;;6150559;23;20025;-75
2024/01/04 07:53:50;;;;;;;3.35;0.77;;;4.80;99.90;;;;;;6147921;23;20816;-75
2024/01/04 07:56:16;;;;;;;1.95;0.60;;;4.80;99.90;;;;;;6148692;23;20024;-75
2024/01/04 07:58:42;;;;;;;4.10;1.10;;;4.80;99.90;;;;;;6148784;23;20015;-75
2024/01/04 08:01:08;;;;;;;3.92;0.90;;;4.80;99.90;;;;;;6150445;23;20567;-75
2024/01/04 08:03:33;;;;;;;2.33;0.88;;;4.80;99.90;;;;;;6148816;23;20158;-75
2024/01/04 08:06:00;;;;;;;7.72;1.08;;;4.80;99.90;;;;;;6145179;23;20489;-75
2024/01/04 08:08:28;;;;;;;5.40;1.20;;;4.80;99.90;;;;;;6124278;23;20017;-74
2024/01/04 08:10:54;;;;;;;2.60;0.90;;;4.80;99.90;;;;;;6149853;23;20020;-75
2024/01/04 08:13:20;;;;;;;6.82;1.50;;;4.80;99.90;;;;;;6147278;23;20284;-75
2024/01/04 08:15:46;;;;;;;6.25;1.00;;;4.80;99.90;;;;;;6150121;23;20022;-75
2024/01/04 08:18:11;;;;;;;5.55;1.10;;;4.80;99.90;;;;;;6149948;23;20009;-75
2024/01/04 08:20:37;;;;;;;3.42;1.25;;;4.70;99.90;;;;;;6149007;23;20053;-75
2024/01/04 08:23:03;;;;;;;4.00;0.82;;;4.80;99.90;;;;;;6149603;23;20014;-74
2024/01/04 08:25:29;;;;;;;4.38;0.90;;;4.80;99.90;;;;;;6148394;23;20017;-74
2024/01/04 08:27:55;;;;;;;8.48;1.30;;;4.80;99.90;;;;;;6147303;23;20080;-75
2024/01/04 08:30:21;;;;;;;7.15;2.10;;;4.70;99.90;;;;;;6149102;23;20024;-75
2024/01/04 08:32:46;;;;;;;7.35;1.40;;;4.70;99.90;;;;;;6149759;23;20025;-75
2024/01/04 08:35:12;;;;;;;3.38;1.45;;;4.70;99.90;;;;;;6148137;23;20044;-72
2024/01/04 08:37:38;;;;;;;5.13;0.82;;;4.80;99.90;;;;;;6152361;23;20303;-72
2024/01/04 08:40:04;;;;;;;4.50;0.90;;;4.70;99.90;;;;;;6149979;23;20115;-72
2024/01/04 08:42:30;;;;;;;6.43;1.30;;;4.80;99.90;;;;;;6148438;23;20031;-71
2024/01/04 08:44:57;;;;;;;5.03;1.10;;;4.80;99.90;;;;;;6149519;23;20025;-72
2024/01/04 08:47:23;;;;;;;4.38;1.25;;;4.80;99.90;;;;;;6124265;23;20024;-71
2024/01/04 08:49:49;;;;;;;4.88;1.08;;;4.80;99.90;;;;;;6148411;23;20009;-72
2024/01/04 08:52:15;;;;;;;6.00;1.10;;;4.90;99.90;;;;;;6150067;23;20100;-72
2024/01/04 08:54:41;;;;;;;7.82;1.55;;;4.90;99.90;;;;;;6149946;23;20017;-72
2024/01/04 08:57:07;;;;;;;4.68;1.08;;;4.90;99.90;;;;;;6147818;23;20481;-72
2024/01/04 08:59:34;;;;;;;3.03;1.05;;;4.90;99.90;;;;;;6123567;23;20457;-71
2024/01/04 09:01:59;;;;;;;3.97;0.90;;;5.00;99.90;;;;;;6149775;23;20122;-71
2024/01/04 09:04:25;;;;;;;3.13;1.20;;;5.00;99.90;;;;;;6149033;23;20548;-72
2024/01/04 09:06:51;;;;;;;5.63;1.20;;;5.00;99.90;;;;;;6146858;23;20026;-72
2024/01/04 09:09:16;;;;;;;1.17;0.65;;;5.00;99.90;;;;;;6149379;23;20009;-72
2024/01/04 09:11:48;;;;;;;4.28;1.05;;;5.00;99.90;;;;;;6148257;23;20056;-72
2024/01/04 09:14:14;;;;;;;5.70;0.90;;;5.00;99.90;;;;;;6124388;23;20025;-72
2024/01/04 09:16:43;;;;;;;7.32;1.48;;;5.10;99.90;;;;;;6121842;23;20180;-71
2024/01/04 09:19:16;;;;;;;2.80;1.17;;;5.10;99.90;;;;;;6120747;23;20092;-71
2024/01/04 09:21:48;;;;;;;5.30;1.13;;;5.10;99.90;;;;;;6122266;23;20021;-72
2024/01/04 09:24:14;;;;;;;5.10;1.20;;;5.10;99.90;;;;;;6122363;23;20092;-72
2024/01/04 09:26:43;;;;;;;4.72;1.30;;;5.10;99.90;;;;;;6121344;23;20097;-71
2024/01/04 09:29:10;;;;;;;9.13;1.45;;;5.10;99.90;;;;;;6121636;23;20477;-72
2024/01/04 09:31:36;;;;;;;6.57;2.00;;;5.10;99.90;;;;;;6097006;23;20021;-72
2024/01/04 09:34:03;;;;;;;5.47;1.33;;;5.20;99.90;;;;;;6123731;23;20024;-72
2024/01/04 09:36:30;;;;;;;5.88;1.80;;;5.20;99.90;;;;;;6149332;23;20022;-72
2024/01/04 09:38:56;;;;;;;7.18;1.10;;;5.20;99.90;;;;;;6120511;23;20517;-73
2024/01/04 09:41:35;;;;;;;5.65;1.30;;;5.20;99.90;;;;;;6121639;23;20190;-71
2024/01/04 09:44:05;;;;;;;7.85;1.67;;;5.20;99.90;;;;;;6123510;23;20033;-72
2024/01/04 09:46:35;;;;;;;3.95;1.17;;;5.30;99.90;;;;;;6148844;23;20033;-71
2024/01/04 09:49:02;;;;;;;4.57;1.40;;;5.30;99.90;;;;;;6149606;23;20054;-72
2024/01/04 09:51:33;;;;;;;3.53;1.25;;;5.30;99.90;;;;;;6146801;23;20021;-72
2024/01/04 09:54:01;;;;;;;8.73;2.15;;;5.40;99.90;;;;;;6124376;23;20017;-71
2024/01/04 09:56:29;;;;;;;5.47;1.13;;;5.40;99.90;;;;;;6120864;23;20017;-71
2024/01/04 09:58:54;;;;;;;4.15;1.05;;;5.40;99.90;;;;;;6122648;23;20281;-71
2024/01/04 10:01:24;;;;;;;6.20;1.40;;;5.40;99.90;;;;;;6123141;23;20281;-71
2024/01/04 10:03:53;;;;;;;7.90;1.45;;;5.40;99.90;;;;;;6097722;23;20036;-71
2024/01/04 10:06:30;;;;;;;3.95;0.93;;;5.50;99.90;;;;;;6143423;23;20018;-71
2024/01/04 10:09:01;;;;;;;5.03;1.00;;;5.50;99.90;;;;;;6147685;23;20028;-71
2024/01/04 10:11:36;;;;;;;10.40;1.17;;;5.50;99.90;;;;;;6120398;23;20504;-71
2024/01/04 10:14:03;;;;;;;6.28;1.40;;;5.50;99.90;;;;;;6147807;23;20010;-71
2024/01/04 10:16:29;;;;;;;8.90;1.25;;;5.50;99.90;;;;;;6121582;23;20025;-71
2024/01/04 10:18:59;;;;;;;5.45;1.00;;;5.50;99.90;;;;;;6123730;23;20021;-72
2024/01/04 10:21:31;;;;;;;3.60;1.02;;;5.50;99.90;;;;;;6119033;23;20018;-72
2024/01/04 10:23:58;;;;;;;3.67;1.13;;;5.60;99.90;;;;;;6100300;23;20020;-71
2024/01/04 10:26:25;;;;;;;3.78;1.10;;;5.60;99.90;;;;;;6120123;23;20013;-71
2024/01/04 10:28:59;;;;;;;3.22;1.00;;;5.60;99.90;;;;;;6125324;23;20021;-70
2024/01/04 10:31:25;;;;;;;2.88;1.00;;;5.60;99.90;;;;;;6123227;23;20056;-73
2024/01/04 10:33:58;;;;;;;7.18;1.42;;;5.50;99.90;;;;;;6121363;23;20022;-73
2024/01/04 10:36:28;;;;;;;2.92;0.90;;;5.50;99.90;;;;;;6122771;23;20028;-72
2024/01/04 10:39:06;;;;;;;3.03;0.93;;;5.50;99.90;;;;;;6123668;23;20359;-72
2024/01/04 10:41:33;;;;;;;4.68;1.08;;;5.50;99.90;;;;;;6120123;23;20025;-72
2024/01/04 10:44:05;;;;;;;2.67;1.00;;;5.50;99.90;;;;;;6098618;23;20025;-73
2024/01/04 10:46:34;;;;;;;2.90;0.90;;;5.50;99.90;;;;;;6124152;23;20149;-73
2024/01/04 10:49:04;;;;;;;3.05;0.70;;;5.40;99.90;;;;;;6099423;23;20025;-72
2024/01/04 10:51:31;;;;;;;4.55;1.10;;;5.40;99.90;;;;;;6125558;23;20354;-72
2024/01/04 10:54:01;;;;;;;6.03;1.42;;;5.50;99.90;;;;;;6125983;23;20017;-72
2024/01/04 10:56:32;;;;;;;5.60;1.13;;;5.40;99.90;;;;;;6124620;23;20035;-72
2024/01/04 10:58:59;;;;;;;6.05;1.42;;;5.40;99.90;;;;;;6125723;23;20493;-72
2024/01/04 11:01:25;;;;;;;1.85;0.80;;;5.50;99.90;;;;;;6127185;23;20025;-72
2024/01/04 11:03:55;;;;;;;6.93;1.13;;;5.50;99.90;;;;;;6151336;23;20049;-72
2024/01/04 11:06:23;;;;;;;2.70;1.02;;;5.50;99.90;;;;;;6150524;23;20023;-72
2024/01/04 11:08:50;;;;;;;3.90;1.05;;;5.50;99.90;;;;;;6123546;23;20092;-73
2024/01/04 11:11:18;;;;;;;6.35;1.50;;;5.50;99.90;;;;;;6124869;23;20017;-73
2024/01/04 11:13:44;;;;;;;1.52;0.63;;;5.60;99.90;;;;;;6125626;23;20111;-72
2024/01/04 11:16:45;;;;;;;2.80;0.95;;;5.60;99.90;;;;;;6151502;23;20454;-72
2024/01/04 11:19:21;;;;;;;3.40;1.23;;;5.60;99.90;;;;;;6124695;23;20235;-73
2024/01/04 11:22:12;;;;;;;9.05;1.10;;;5.60;99.90;;;;;;6101046;23;20044;-73
2024/01/04 11:25:06;;;;;;;7.93;1.55;;;5.60;99.90;;;;;;6123568;23;20013;-73
2024/01/04 11:27:33;;;;;;;4.55;1.42;;;5.60;99.90;;;;;;6122188;23;20018;-73
2024/01/04 11:29:59;;;;;;;3.72;1.10;;;5.60;99.90;;;;;;6122147;23;20052;-73
2024/01/04 11:32:28;;;;;;;4.85;1.02;;;5.60;99.90;;;;;;6149631;23;20373;-72
2024/01/04 11:34:54;;;;;;;2.63;1.20;;;5.60;99.90;;;;;;6149117;23;20025;-73
2024/01/04 11:37:22;;;;;;;5.60;1.67;;;5.60;99.90;;;;;;6123942;23;20133;-73
2024/01/04 11:39:57;;;;;;;3.40;1.10;;;5.60;99.90;;;;;;6125361;23;20449;-73
2024/01/04 11:42:33;;;;;;;5.63;1.10;;;5.60;99.90;;;;;;6124004;23;20347;-74
2024/01/04 11:45:08;;;;;;;2.05;0.85;;;5.50;99.90;;;;;;6098561;23;20025;-74
2024/01/04 11:47:36;;;;;;;5.15;1.67;;;5.50;99.90;;;;;;6123885;23;20026;-72
2024/01/04 11:50:03;;;;;;;4.75;1.20;;;5.50;99.90;;;;;;6121550;23;20024;-74
2024/01/04 11:52:29;;;;;;;4.18;1.05;;;5.60;99.90;;;;;;6120329;23;20088;-73
2024/01/04 11:54:55;;;;;;;2.55;0.90;;;5.60;99.90;;;;;;6121854;23;20465;-73
2024/01/04 11:57:26;;;;;;;4.82;1.23;;;5.60;99.90;;;;;;6147971;23;20022;-73
2024/01/04 11:59:52;;;;;;;4.10;1.02;;;5.60;99.90;;;;;;6122641;23;20029;-73
2024/01/04 12:02:19;;;;;;;3.20;1.10;;;5.70;99.90;;;;;;6150124;23;20018;-73
2024/01/04 12:04:45;;;;;;;5.45;1.50;;;5.70;99.90;;;;;;6123038;23;20064;-73
2024/01/04 12:07:12;;;;;;;4.78;1.70;;;5.70;99.90;;;;;;6147071;23;20079;-73
2024/01/04 12:09:38;;;;;;;4.07;1.10;;;5.80;99.90;;;;;;6124521;23;20031;-73
2024/01/04 12:12:05;;;;;;;1.70;0.80;;;5.80;99.90;;;;;;6124545;23;20017;-73
2024/01/04 12:14:34;;;;;;;3.25;1.10;;;5.90;99.90;;;;;;6125181;23;20164;-73
2024/01/04 12:16:59;;;;;;;4.97;1.00;;;5.90;99.90;;;;;;6100856;23;20016;-73
2024/01/04 12:19:25;;;;;;;4.63;0.82;;;6.00;99.90;;;;;;6100636;23;20073;-73
2024/01/04 12:21:51;;;;;;;3.63;0.85;;;5.90;99.90;;;;;;6151681;23;20018;-74
2024/01/04 12:24:17;;;;;;;4.78;1.13;;;5.90;99.90;;;;;;6124987;23;20017;-73
2024/01/04 12:26:43;;;;;;;2.92;1.02;;;5.90;99.90;;;;;;6123922;23;20559;-74
2024/01/04 12:29:09;;;;;;;2.80;1.05;;;5.80;99.90;;;;;;6150868;23;20021;-73
2024/01/04 12:31:35;;;;;;;6.25;1.30;;;5.80;99.90;;;;;;6124273;23;20025;-73
2024/01/04 12:34:01;;;;;;;5.88;2.13;;;5.80;99.90;;;;;;6124734;23;20484;-73
2024/01/04 12:36:26;;;;;;;6.72;1.40;;;5.80;99.90;;;;;;6150924;23;20013;-73
2024/01/04 12:38:54;;;;;;;5.55;1.52;;;5.80;99.90;;;;;;6150744;23;20029;-73
2024/01/04 12:41:28;;;;;;;7.28;2.13;;;5.80;99.90;;;;;;6123718;23;20014;-73
2024/01/04 12:43:55;;;;;;;9.93;2.97;;;5.80;99.90;;;;;;6151052;23;20149;-73
2024/01/04 12:46:21;;;;;;;8.82;2.20;;;5.80;99.90;;;;;;6124324;23;20033;-74
2024/01/04 12:48:48;;;;;;;6.00;1.95;;;5.70;99.90;;;;;;6124461;23;20017;-74
2024/01/04 12:51:14;;;;;;;10.90;2.75;;;5.70;99.90;;;;;;6151319;23;20028;-73
2024/01/04 12:53:45;;;;;;;4.90;2.28;;;5.80;99.90;;;;;;6075388;23;20024;-74
2024/01/04 12:56:19;;;;;;;2.85;1.10;;;5.90;99.90;;;;;;6099466;23;20040;-74